Ames, Kansas
Current Conditions -  °F | °C
As of 2:55 PM on Monday 24 Nov 2014 (Local Time) from KCNK Reporting Station
Clear Clear  
Wind Chill: 35°   Ceiling: Unl
Heat Index: 44°   Visibility: 10mi
Dew Point: 14°   Wind: 22mph
Humidity: 30%   Direction: 310°NW
Pressure: 29.89"   Gusts: 32mph
Location:  39.4716°N, 97.7305°W
Report Text: KCNK 242055Z AUTO 31019G28KT 10SM CLR 07/M10 A2989 RMK AO2 PK WND 31029/2019 SLP130 T00671100 53020
Loading
Personal Weather Stations






























Interactive Weather Map New forecast layout! Learn more

10-Day Weather Forecast

Advertisements
Track Severe Weather on mobile